createdAt,value
2022-09-20T00:01:41.570Z,56.70
2022-09-20T00:04:13.140Z,56.80
2022-09-20T00:06:39.876Z,56.80
2022-09-20T00:09:06.642Z,56.80
2022-09-20T00:11:35.858Z,56.90
2022-09-20T00:14:08.302Z,57.10
2022-09-20T00:16:40.962Z,57.20
2022-09-20T00:19:18.664Z,57.50
2022-09-20T00:21:47.529Z,57.30
2022-09-20T00:24:20.130Z,57.30
2022-09-20T00:26:49.327Z,57.50
2022-09-20T00:29:18.320Z,57.50
2022-09-20T00:31:47.690Z,57.50
2022-09-20T00:34:33.133Z,57.60
2022-09-20T00:37:02.302Z,57.60
2022-09-20T00:39:31.446Z,57.60
2022-09-20T00:42:00.659Z,57.70
2022-09-20T00:45:07.588Z,57.80
2022-09-20T00:47:47.960Z,58.40
2022-09-20T00:50:41.787Z,58.30
2022-09-20T00:53:20.278Z,58.60
2022-09-20T00:55:59.572Z,58.50
2022-09-20T00:58:32.579Z,58.30
2022-09-20T01:01:02.429Z,58.10
2022-09-20T01:03:36.192Z,58.20
2022-09-20T01:06:13.704Z,58.30
2022-09-20T01:08:53.107Z,58.30
2022-09-20T01:11:25.031Z,58.50
2022-09-20T01:13:51.839Z,58.20
2022-09-20T01:16:28.009Z,58.40
2022-09-20T01:19:00.228Z,58.30
2022-09-20T01:21:28.451Z,58.60
2022-09-20T01:24:22.185Z,58.50
2022-09-20T01:27:15.442Z,58.70
2022-09-20T01:30:06.915Z,58.80
2022-09-20T01:33:12.771Z,58.80
2022-09-20T01:35:45.239Z,59.10
2022-09-20T01:38:41.457Z,58.60
2022-09-20T01:41:38.726Z,58.70
2022-09-20T01:44:08.047Z,58.90
2022-09-20T01:46:36.847Z,58.70
2022-09-20T01:49:28.089Z,58.80
2022-09-20T01:52:12.865Z,59.20
2022-09-20T01:55:04.414Z,59.30
2022-09-20T01:58:15.263Z,59.20
2022-09-20T02:01:34.980Z,59.40
2022-09-20T02:04:38.138Z,59.30
2022-09-20T02:07:46.051Z,59.40
2022-09-20T02:10:51.763Z,59.30
2022-09-20T02:13:32.778Z,59.40
2022-09-20T02:16:42.580Z,59.00
2022-09-20T02:19:40.282Z,59.60
2022-09-20T02:22:31.241Z,59.70
2022-09-20T02:25:41.016Z,59.20
2022-09-20T02:28:40.631Z,59.40
2022-09-20T02:31:24.942Z,59.10
2022-09-20T02:34:59.177Z,59.40
2022-09-20T02:37:46.003Z,60.00
2022-09-20T02:40:29.897Z,59.50
2022-09-20T02:43:17.430Z,59.70
2022-09-20T02:45:59.939Z,59.90
2022-09-20T02:48:57.046Z,60.20
2022-09-20T02:51:55.352Z,60.30
2022-09-20T02:54:53.878Z,60.40
2022-09-20T02:58:08.580Z,59.70
2022-09-20T03:01:24.081Z,60.20
2022-09-20T03:04:13.847Z,60.20
2022-09-20T03:06:58.855Z,59.90
2022-09-20T03:09:51.476Z,60.10
2022-09-20T03:12:55.037Z,60.30
2022-09-20T03:15:49.395Z,60.70
2022-09-20T03:19:03.011Z,60.20
2022-09-20T03:21:49.829Z,60.40
2022-09-20T03:25:01.833Z,60.40
2022-09-20T03:28:37.692Z,60.70
2022-09-20T03:31:14.145Z,60.80
2022-09-20T03:33:50.343Z,60.40
2022-09-20T03:36:47.153Z,60.60
2022-09-20T03:39:43.640Z,60.30
2022-09-20T03:42:19.132Z,61.50
2022-09-20T03:45:32.718Z,60.30
2022-09-20T03:48:36.920Z,60.90
2022-09-20T03:51:23.778Z,61.00
2022-09-20T03:54:07.275Z,60.40
2022-09-20T03:57:02.262Z,60.50
2022-09-20T03:59:54.853Z,60.80
2022-09-20T04:02:46.754Z,60.90
2022-09-20T04:05:48.304Z,60.50
2022-09-20T04:09:14.736Z,60.90
2022-09-20T04:11:55.025Z,61.10
2022-09-20T04:15:09.099Z,61.50
2022-09-20T04:18:23.520Z,61.20
2022-09-20T04:21:17.676Z,61.10
2022-09-20T04:23:50.018Z,61.00
2022-09-20T04:26:31.626Z,60.70
2022-09-20T04:29:05.498Z,60.90
2022-09-20T04:31:45.393Z,60.80
2022-09-20T04:35:02.612Z,60.90
2022-09-20T04:37:35.957Z,61.30
2022-09-20T04:40:51.674Z,60.90
2022-09-20T04:44:24.365Z,61.30
2022-09-20T04:47:25.591Z,61.30
2022-09-20T04:50:41.073Z,61.60
2022-09-20T04:53:40.746Z,60.90
2022-09-20T04:56:48.605Z,60.90
2022-09-20T05:00:08.386Z,61.50
2022-09-20T05:03:15.363Z,61.40
2022-09-20T05:06:15.616Z,60.90
2022-09-20T05:09:07.264Z,61.40
2022-09-20T05:11:54.531Z,61.00
2022-09-20T05:15:02.898Z,61.40
2022-09-20T05:18:28.581Z,61.40
2022-09-20T05:21:35.383Z,61.40
2022-09-20T05:24:30.811Z,61.40
2022-09-20T05:27:24.808Z,61.50
2022-09-20T05:30:22.860Z,61.30
2022-09-20T05:33:10.090Z,61.20
2022-09-20T05:35:47.351Z,61.20
2022-09-20T05:38:44.491Z,61.20
2022-09-20T05:42:09.496Z,61.50
2022-09-20T05:44:50.960Z,61.70
2022-09-20T05:47:55.000Z,61.60
2022-09-20T05:50:45.419Z,61.80
2022-09-20T05:53:39.346Z,62.00
2022-09-20T05:56:35.740Z,61.60
2022-09-20T05:59:12.853Z,61.80
2022-09-20T06:02:10.383Z,61.60
2022-09-20T06:05:10.952Z,61.90
2022-09-20T06:08:03.751Z,62.10
2022-09-20T06:10:50.332Z,61.60
2022-09-20T06:13:35.241Z,61.60
2022-09-20T06:16:07.752Z,61.60
2022-09-20T06:19:12.706Z,61.50
2022-09-20T06:22:24.605Z,61.40
2022-09-20T06:25:09.862Z,61.50
2022-09-20T06:27:55.100Z,61.30
2022-09-20T06:30:33.389Z,61.20
2022-09-20T06:33:12.978Z,61.30
2022-09-20T06:35:45.257Z,61.30
2022-09-20T06:38:56.845Z,61.40
2022-09-20T06:41:31.310Z,61.50
2022-09-20T06:44:03.884Z,61.40
2022-09-20T06:46:35.516Z,62.00
2022-09-20T06:49:09.691Z,61.30
2022-09-20T06:51:39.091Z,61.30
2022-09-20T06:54:12.662Z,61.20
2022-09-20T06:56:39.565Z,61.30
2022-09-20T06:59:11.397Z,61.10
2022-09-20T07:01:38.786Z,61.20
2022-09-20T07:04:06.539Z,61.20
2022-09-20T07:06:36.145Z,61.20
2022-09-20T07:09:03.784Z,61.20
2022-09-20T07:11:34.960Z,61.10
2022-09-20T07:14:06.127Z,60.90
2022-09-20T07:16:36.206Z,60.90
2022-09-20T07:19:05.863Z,60.90
2022-09-20T07:21:37.611Z,60.80
2022-09-20T07:24:06.925Z,60.90
2022-09-20T07:26:39.010Z,60.80
2022-09-20T07:29:09.006Z,60.90
2022-09-20T07:31:35.787Z,60.90
2022-09-20T07:34:02.541Z,60.90
2022-09-20T07:36:29.321Z,60.90
2022-09-20T07:38:56.210Z,60.80
2022-09-20T07:41:26.524Z,60.90
2022-09-20T07:44:13.228Z,60.80
2022-09-20T07:46:40.007Z,60.90
2022-09-20T07:49:09.217Z,60.90
2022-09-20T07:51:38.475Z,60.80
2022-09-20T07:54:07.711Z,60.70
2022-09-20T07:56:36.959Z,60.70
2022-09-20T07:59:06.810Z,60.60
2022-09-20T08:01:37.089Z,60.60
2022-09-20T08:04:11.572Z,60.60
2022-09-20T08:06:42.689Z,60.40
2022-09-20T08:09:13.423Z,60.20
2022-09-20T08:11:44.294Z,60.10
2022-09-20T08:14:17.403Z,60.00
2022-09-20T08:16:50.301Z,59.80
2022-09-20T08:19:22.741Z,59.70
2022-09-20T08:21:54.205Z,59.60
2022-09-20T08:24:26.738Z,59.30
2022-09-20T08:26:53.473Z,59.10
2022-09-20T08:29:20.360Z,59.10
2022-09-20T08:31:49.950Z,59.10
2022-09-20T08:34:18.924Z,59.00
2022-09-20T08:36:47.069Z,58.90
2022-09-20T08:42:33.033Z,58.60
2022-09-20T08:45:23.419Z,58.30
2022-09-20T08:48:06.321Z,58.40
2022-09-20T08:50:37.300Z,58.70
2022-09-20T08:53:06.896Z,59.30
2022-09-20T08:55:37.328Z,58.60
2022-09-20T08:58:12.482Z,58.70
2022-09-20T09:00:44.762Z,58.60
2022-09-20T09:03:18.864Z,58.40
2022-09-20T09:05:58.012Z,58.00
2022-09-20T09:08:37.689Z,57.80
2022-09-20T09:11:17.044Z,57.70
2022-09-20T09:14:26.608Z,57.40
2022-09-20T09:16:55.611Z,57.00
2022-09-20T09:19:34.047Z,57.20
2022-09-20T09:22:08.115Z,57.00
2022-09-20T09:24:37.918Z,57.00
2022-09-20T09:27:19.477Z,56.90
2022-09-20T09:29:56.373Z,56.60
2022-09-20T09:32:35.063Z,56.50
2022-09-20T09:35:32.194Z,56.60
2022-09-20T09:38:02.190Z,56.20
2022-09-20T09:40:33.051Z,56.70
2022-09-20T09:43:02.797Z,56.70
2022-09-20T09:45:43.850Z,56.60
2022-09-20T09:48:24.877Z,55.60
2022-09-20T09:51:12.177Z,55.30
2022-09-20T09:53:39.992Z,54.60
2022-09-20T09:56:41.399Z,55.20
2022-09-20T09:59:27.649Z,54.00
2022-09-20T10:02:13.238Z,54.30
2022-09-20T10:05:03.398Z,54.00
2022-09-20T10:08:13.128Z,54.20
2022-09-20T10:11:16.075Z,53.40
2022-09-20T10:13:57.868Z,53.00
2022-09-20T10:17:08.348Z,53.60
2022-09-20T10:20:28.136Z,52.80
2022-09-20T10:23:45.195Z,53.10
2022-09-20T10:26:22.083Z,53.30
2022-09-20T10:29:48.141Z,53.10
2022-09-20T10:32:18.820Z,52.20
2022-09-20T10:35:24.762Z,52.70
2022-09-20T10:38:12.236Z,52.00
2022-09-20T10:41:31.733Z,52.90
2022-09-20T10:44:19.227Z,52.80
2022-09-20T10:47:14.140Z,52.90
2022-09-20T10:49:50.785Z,52.80
2022-09-20T10:52:32.496Z,52.40
2022-09-20T10:55:22.300Z,51.70
2022-09-20T10:58:56.025Z,51.70
2022-09-20T11:01:47.524Z,51.50
2022-09-20T11:04:32.367Z,51.30
2022-09-20T11:07:21.758Z,50.40
2022-09-20T11:10:02.530Z,50.00
2022-09-20T11:12:51.206Z,50.40
2022-09-20T11:15:26.953Z,50.00
2022-09-20T11:18:25.666Z,50.00
2022-09-20T11:21:32.530Z,49.80
2022-09-20T11:24:38.119Z,49.50
2022-09-20T11:27:25.521Z,49.30
2022-09-20T11:29:57.984Z,48.40
2022-09-20T11:32:46.836Z,49.10
2022-09-20T11:35:16.390Z,48.90
2022-09-20T11:38:17.594Z,49.20
2022-09-20T11:41:11.900Z,48.70
2022-09-20T11:43:44.296Z,48.40
2022-09-20T11:46:21.394Z,49.10
2022-09-20T11:49:05.978Z,49.20
2022-09-20T11:52:05.119Z,48.60
2022-09-20T11:55:13.722Z,48.60
2022-09-20T11:57:43.042Z,48.90
2022-09-20T12:00:12.633Z,49.80
2022-09-20T12:02:53.991Z,50.10
2022-09-20T12:05:37.116Z,49.70
2022-09-20T12:08:27.876Z,49.80
2022-09-20T12:11:04.160Z,49.40
2022-09-20T12:13:36.356Z,49.80
2022-09-20T12:16:17.533Z,49.60
2022-09-20T12:18:54.039Z,49.00
2022-09-20T12:21:24.200Z,48.10
2022-09-20T12:23:56.767Z,48.50
2022-09-20T12:26:28.555Z,47.90
2022-09-20T12:28:59.540Z,48.10
2022-09-20T12:31:29.106Z,47.60
2022-09-20T12:34:11.511Z,47.90
2022-09-20T12:36:53.338Z,47.40
2022-09-20T12:39:36.400Z,48.00
2022-09-20T12:42:21.631Z,48.10
2022-09-20T12:44:53.246Z,48.20
2022-09-20T12:47:22.491Z,48.20
2022-09-20T12:50:07.818Z,48.20
2022-09-20T12:53:04.826Z,48.40
2022-09-20T12:56:01.895Z,48.10
2022-09-20T12:58:48.677Z,48.40
2022-09-20T13:01:15.500Z,48.70
2022-09-20T13:03:44.294Z,49.00
2022-09-20T13:06:14.808Z,49.10
2022-09-20T13:08:50.393Z,49.50
2022-09-20T13:11:52.460Z,50.00
2022-09-20T13:14:23.532Z,50.10
2022-09-20T13:17:14.336Z,50.10
2022-09-20T13:19:51.515Z,49.70
2022-09-20T13:22:26.646Z,49.00
2022-09-20T13:25:05.203Z,48.00
2022-09-20T13:27:45.089Z,46.70
2022-09-20T13:30:17.641Z,45.00
2022-09-20T13:32:45.517Z,45.00
2022-09-20T13:35:21.563Z,45.30
2022-09-20T13:38:04.919Z,44.80
2022-09-20T13:40:43.786Z,44.60
2022-09-20T13:43:33.381Z,44.20
2022-09-20T13:46:09.759Z,44.70
2022-09-20T13:48:39.462Z,44.00
2022-09-20T13:51:29.051Z,43.90
2022-09-20T13:54:30.986Z,41.10
2022-09-20T13:57:05.343Z,41.80
2022-09-20T13:59:44.812Z,42.50
2022-09-20T14:02:27.735Z,42.50
2022-09-20T14:04:57.849Z,42.00
2022-09-20T14:07:27.918Z,41.80
2022-09-20T14:09:58.846Z,41.20
2022-09-20T14:12:27.648Z,40.90
2022-09-20T14:14:57.526Z,40.80
2022-09-20T14:17:25.784Z,40.80
2022-09-20T14:19:54.819Z,41.00
2022-09-20T14:22:30.596Z,41.20
2022-09-20T14:25:25.299Z,41.20
2022-09-20T14:28:19.165Z,41.40
2022-09-20T14:30:51.168Z,42.10
2022-09-20T14:33:24.333Z,42.40
2022-09-20T14:35:52.627Z,42.70
2022-09-20T14:38:27.167Z,42.90
2022-09-20T14:40:56.728Z,43.00
2022-09-20T14:43:36.186Z,43.80
2022-09-20T14:46:41.497Z,43.60
2022-09-20T14:49:28.494Z,42.50
2022-09-20T14:52:36.432Z,42.60
2022-09-20T14:55:28.360Z,42.80
2022-09-20T14:58:03.198Z,42.70
2022-09-20T15:00:47.236Z,43.60
2022-09-20T15:03:21.396Z,43.60
2022-09-20T15:05:50.819Z,43.40
2022-09-20T15:08:20.273Z,43.20
2022-09-20T15:10:47.785Z,43.20
2022-09-20T15:13:14.934Z,42.80
2022-09-20T15:15:44.228Z,42.90
2022-09-20T15:18:25.325Z,43.00
2022-09-20T15:20:54.145Z,42.90
2022-09-20T15:23:21.832Z,43.20
2022-09-20T15:25:54.475Z,43.00
2022-09-20T15:28:24.173Z,42.60
2022-09-20T15:30:51.745Z,42.50
2022-09-20T15:33:23.610Z,42.40
2022-09-20T15:35:52.975Z,42.50
2022-09-20T15:38:22.733Z,42.30
2022-09-20T15:40:50.171Z,42.30
2022-09-20T15:43:26.992Z,42.00
2022-09-20T15:45:57.641Z,42.30
2022-09-20T15:48:30.100Z,41.70
2022-09-20T15:51:14.996Z,41.60
2022-09-20T15:53:54.073Z,41.40
2022-09-20T15:56:23.370Z,41.70
2022-09-20T15:58:58.995Z,41.90
2022-09-20T16:01:38.095Z,42.70
2022-09-20T16:04:10.272Z,42.30
2022-09-20T16:06:43.963Z,41.60
2022-09-20T16:09:11.860Z,41.60
2022-09-20T16:11:41.880Z,41.60
2022-09-20T16:14:13.209Z,41.50
2022-09-20T16:16:43.187Z,41.30
2022-09-20T16:19:24.845Z,41.30
2022-09-20T16:21:59.155Z,41.30
2022-09-20T16:24:35.822Z,41.40
2022-09-20T16:27:06.173Z,41.60
2022-09-20T16:29:33.954Z,41.50
2022-09-20T16:32:04.021Z,41.60
2022-09-20T16:34:36.807Z,41.90
2022-09-20T16:37:12.042Z,42.00
2022-09-20T16:39:40.234Z,43.00
2022-09-20T16:42:13.141Z,42.40
2022-09-20T16:44:45.364Z,42.50
2022-09-20T16:47:21.867Z,42.60
2022-09-20T16:49:53.123Z,42.70
2022-09-20T16:52:22.747Z,42.90
2022-09-20T16:54:54.069Z,43.00
2022-09-20T16:57:23.144Z,43.10
2022-09-20T16:59:51.739Z,43.10
2022-09-20T17:02:18.534Z,43.20
2022-09-20T17:04:47.838Z,43.40
2022-09-20T17:07:14.743Z,43.50
2022-09-20T17:09:43.834Z,43.60
2022-09-20T17:12:10.581Z,43.60
2022-09-20T17:14:39.619Z,43.70
2022-09-20T17:17:09.681Z,43.70
2022-09-20T17:19:36.395Z,43.80
2022-09-20T17:22:03.137Z,43.90
2022-09-20T17:24:33.576Z,43.90
2022-09-20T17:27:05.102Z,44.00
2022-09-20T17:29:34.370Z,44.00
2022-09-20T17:32:05.752Z,44.10
2022-09-20T17:34:35.560Z,44.30
2022-09-20T17:37:04.659Z,44.40
2022-09-20T17:39:34.063Z,44.50
2022-09-20T17:42:03.227Z,44.60
2022-09-20T17:44:30.015Z,44.80
2022-09-20T17:46:58.957Z,45.60
2022-09-20T17:49:28.546Z,45.10
2022-09-20T17:51:58.454Z,45.10
2022-09-20T17:54:26.195Z,45.30
2022-09-20T17:56:56.477Z,45.40
2022-09-20T17:59:28.132Z,45.50
2022-09-20T18:01:59.666Z,45.60
2022-09-20T18:04:28.911Z,45.80
2022-09-20T18:07:01.621Z,45.70
2022-09-20T18:09:30.581Z,45.90
2022-09-20T18:11:57.432Z,45.90
2022-09-20T18:14:31.574Z,46.00
2022-09-20T18:17:03.559Z,46.20
2022-09-20T18:19:34.198Z,46.20
2022-09-20T18:22:04.974Z,46.20
2022-09-20T18:24:34.848Z,46.30
2022-09-20T18:27:04.805Z,46.30
2022-09-20T18:29:36.562Z,46.30
2022-09-20T18:32:08.686Z,46.30
2022-09-20T18:34:40.473Z,46.40
2022-09-20T18:37:14.431Z,46.40
2022-09-20T18:39:42.688Z,46.50
2022-09-20T18:42:11.698Z,46.50
2022-09-20T18:44:41.082Z,46.60
2022-09-20T18:47:10.922Z,46.80
2022-09-20T18:49:40.321Z,46.80
2022-09-20T18:52:10.953Z,46.80
2022-09-20T18:54:42.020Z,46.80
2022-09-20T18:57:10.905Z,47.00
2022-09-20T18:59:40.516Z,47.00
2022-09-20T19:02:21.360Z,47.10
2022-09-20T19:05:09.430Z,47.20
2022-09-20T19:08:25.593Z,47.40
2022-09-20T19:11:01.152Z,47.50
2022-09-20T19:13:38.905Z,47.30
2022-09-20T19:16:18.474Z,47.50
2022-09-20T19:19:13.091Z,47.80
2022-09-20T19:21:52.154Z,47.90
2022-09-20T19:24:55.540Z,47.80
2022-09-20T19:27:27.998Z,47.60
2022-09-20T19:29:55.790Z,47.70
2022-09-20T19:32:26.215Z,47.70
2022-09-20T19:35:01.993Z,47.70
2022-09-20T19:38:02.102Z,47.90
2022-09-20T19:40:45.759Z,48.30
2022-09-20T19:43:41.388Z,47.90
2022-09-20T19:46:31.962Z,48.30
2022-09-20T19:49:30.909Z,48.30
2022-09-20T19:51:58.138Z,48.10
2022-09-20T19:54:27.929Z,48.10
2022-09-20T19:57:00.641Z,48.20
2022-09-20T19:59:33.906Z,48.30
2022-09-20T20:02:01.301Z,48.40
2022-09-20T20:04:31.134Z,48.40
2022-09-20T20:07:21.957Z,48.40
2022-09-20T20:10:03.956Z,48.90
2022-09-20T20:12:52.392Z,48.80
2022-09-20T20:15:38.126Z,49.00
2022-09-20T20:18:33.024Z,48.60
2022-09-20T20:21:00.324Z,48.70
2022-09-20T20:24:07.390Z,48.80
2022-09-20T20:26:34.990Z,49.10
2022-09-20T20:29:01.782Z,48.80
2022-09-20T20:31:31.165Z,48.90
2022-09-20T20:33:58.148Z,48.90
2022-09-20T20:36:27.340Z,49.00
2022-09-20T20:38:56.816Z,49.20
2022-09-20T20:41:27.170Z,49.10
2022-09-20T20:44:00.680Z,49.20
2022-09-20T20:46:27.695Z,49.20
2022-09-20T20:48:58.858Z,49.30
2022-09-20T20:51:27.133Z,49.40
2022-09-20T20:53:55.300Z,49.40
2022-09-20T20:56:28.605Z,49.50
2022-09-20T20:59:01.879Z,49.60
2022-09-20T21:01:39.926Z,49.60
2022-09-20T21:04:09.801Z,49.80
2022-09-20T21:06:41.523Z,49.70
2022-09-20T21:09:13.359Z,49.80
2022-09-20T21:11:44.799Z,49.80
2022-09-20T21:14:12.388Z,49.90
2022-09-20T21:16:43.623Z,50.00
2022-09-20T21:19:15.200Z,50.10
2022-09-20T21:21:47.691Z,50.10
2022-09-20T21:24:17.611Z,50.20
2022-09-20T21:26:47.455Z,50.20
2022-09-20T21:29:18.188Z,50.30
2022-09-20T21:31:48.719Z,50.50
2022-09-20T21:34:19.993Z,50.50
2022-09-20T21:36:46.805Z,51.00
2022-09-20T21:39:16.101Z,50.80
2022-09-20T21:41:46.194Z,50.90
2022-09-20T21:44:17.631Z,51.00
2022-09-20T21:46:48.302Z,51.30
2022-09-20T21:49:15.070Z,51.20
2022-09-20T21:51:42.921Z,51.20
2022-09-20T21:54:14.835Z,51.30
2022-09-20T21:56:41.752Z,51.60
2022-09-20T21:59:11.052Z,51.50
2022-09-20T22:01:40.939Z,51.50
2022-09-20T22:04:14.897Z,51.60
2022-09-20T22:06:44.324Z,52.10
2022-09-20T22:09:12.601Z,51.80
2022-09-20T22:11:47.933Z,52.00
2022-09-20T22:14:19.343Z,52.00
2022-09-20T22:16:48.285Z,52.10
2022-09-20T22:19:18.421Z,52.20
2022-09-20T22:21:51.321Z,52.20
2022-09-20T22:24:22.855Z,52.30
2022-09-20T22:26:51.120Z,52.60
2022-09-20T22:29:20.515Z,52.50
2022-09-20T22:31:51.415Z,52.70
2022-09-20T22:34:24.163Z,52.70
2022-09-20T22:36:55.273Z,52.80
2022-09-20T22:39:24.173Z,53.00
2022-09-20T22:41:53.400Z,52.80
2022-09-20T22:44:22.436Z,53.00
2022-09-20T22:46:51.499Z,53.10
2022-09-20T22:49:20.862Z,53.80
2022-09-20T22:51:50.092Z,53.20
2022-09-20T22:54:17.688Z,53.20
2022-09-20T22:56:44.515Z,53.30
2022-09-20T22:59:14.312Z,53.40
2022-09-20T23:01:45.102Z,53.50
2022-09-20T23:04:18.972Z,53.70
2022-09-20T23:06:54.977Z,53.90
2022-09-20T23:09:26.221Z,53.80
2022-09-20T23:11:55.384Z,53.90
2022-09-20T23:14:24.859Z,53.80
2022-09-20T23:16:51.721Z,53.90
2022-09-20T23:19:18.701Z,54.00
2022-09-20T23:21:47.708Z,54.00
2022-09-20T23:24:16.477Z,54.10
2022-09-20T23:26:48.113Z,54.10
2022-09-20T23:29:16.567Z,54.20
2022-09-20T23:31:47.720Z,54.20
2022-09-20T23:34:16.462Z,54.40
2022-09-20T23:36:44.579Z,54.30
2022-09-20T23:39:12.445Z,54.30
2022-09-20T23:41:41.311Z,54.40
2022-09-20T23:44:10.122Z,54.40
2022-09-20T23:46:38.707Z,54.50
2022-09-20T23:49:11.155Z,54.50
2022-09-20T23:51:38.514Z,54.70
2022-09-20T23:54:05.572Z,54.80
2022-09-20T23:56:37.419Z,54.80
2022-09-20T23:59:08.901Z,54.90
